createdAt,value
2023-03-04T00:01:11.273Z,8.23
2023-03-04T00:03:38.806Z,6.03
2023-03-04T00:06:07.372Z,4.97
2023-03-04T00:08:34.905Z,5.43
2023-03-04T00:11:05.607Z,4.45
2023-03-04T00:13:33.041Z,10.15
2023-03-04T00:16:00.299Z,10.57
2023-03-04T00:18:27.508Z,6.85
2023-03-04T00:20:54.544Z,5.28
2023-03-04T00:23:21.593Z,8.65
2023-03-04T00:25:48.712Z,7.40
2023-03-04T00:28:15.827Z,9.35
2023-03-04T00:30:43.447Z,8.82
2023-03-04T00:33:10.832Z,9.98
2023-03-04T00:35:38.362Z,5.72
2023-03-04T00:38:05.914Z,8.02
2023-03-04T00:40:33.309Z,8.70
2023-03-04T00:43:03.213Z,6.55
2023-03-04T00:45:30.277Z,8.00
2023-03-04T00:47:57.749Z,3.97
2023-03-04T00:50:27.363Z,6.95
2023-03-04T00:52:54.344Z,10.20
2023-03-04T00:55:21.914Z,10.85
2023-03-04T00:57:49.363Z,4.85
2023-03-04T01:00:16.879Z,6.13
2023-03-04T01:02:44.437Z,12.75
2023-03-04T01:05:11.935Z,8.43
2023-03-04T01:07:42.198Z,4.57
2023-03-04T01:10:13.850Z,5.25
2023-03-04T01:12:43.166Z,7.50
2023-03-04T01:15:14.733Z,8.18
2023-03-04T01:17:42.388Z,7.35
2023-03-04T01:20:10.526Z,11.18
2023-03-04T01:22:38.453Z,7.75
2023-03-04T01:25:06.470Z,10.35
2023-03-04T01:27:33.888Z,9.18
2023-03-04T01:30:01.180Z,6.15
2023-03-04T01:32:33.382Z,7.82
2023-03-04T01:35:00.895Z,11.45
2023-03-04T01:37:28.358Z,10.60
2023-03-04T01:39:55.372Z,8.00
2023-03-04T01:42:24.744Z,5.30
2023-03-04T01:44:53.026Z,14.27
2023-03-04T01:47:22.015Z,6.72
2023-03-04T01:49:54.112Z,6.78
2023-03-04T01:52:21.202Z,12.45
2023-03-04T01:54:48.868Z,5.45
2023-03-04T01:57:18.624Z,7.38
2023-03-04T01:59:46.492Z,5.40
2023-03-04T02:02:14.268Z,8.73
2023-03-04T02:04:42.715Z,8.40
2023-03-04T02:07:10.108Z,7.65
2023-03-04T02:09:38.413Z,7.97
2023-03-04T02:12:05.610Z,6.90
2023-03-04T02:14:33.142Z,6.45
2023-03-04T02:17:00.365Z,13.07
2023-03-04T02:19:49.742Z,6.18
2023-03-04T02:22:19.450Z,4.60
2023-03-04T02:24:52.796Z,8.82
2023-03-04T02:27:22.015Z,6.50
2023-03-04T02:29:50.329Z,7.20
2023-03-04T02:32:19.756Z,8.13
2023-03-04T02:34:49.832Z,7.55
2023-03-04T02:37:18.995Z,4.47
2023-03-04T02:39:51.127Z,2.40
2023-03-04T02:42:18.731Z,5.85
2023-03-04T02:44:48.331Z,4.88
2023-03-04T02:47:18.764Z,9.18
2023-03-04T02:49:48.146Z,5.18
2023-03-04T02:52:20.903Z,8.05
2023-03-04T02:54:48.638Z,6.03
2023-03-04T02:57:16.953Z,11.93
2023-03-04T02:59:47.708Z,8.15
2023-03-04T03:02:19.646Z,8.27
2023-03-04T03:04:49.882Z,4.82
2023-03-04T03:07:19.917Z,3.25
2023-03-04T03:09:51.260Z,8.85
2023-03-04T03:12:19.718Z,4.45
2023-03-04T03:14:47.359Z,11.75
2023-03-04T03:17:18.046Z,9.50
2023-03-04T03:19:45.289Z,8.75
2023-03-04T03:22:12.600Z,9.02
2023-03-04T03:24:39.791Z,6.63
2023-03-04T03:27:06.856Z,15.20
2023-03-04T03:29:34.388Z,9.70
2023-03-04T03:32:01.586Z,9.30
2023-03-04T03:34:28.859Z,9.25
2023-03-04T03:36:56.238Z,9.23
2023-03-04T03:39:23.770Z,4.78
2023-03-04T03:41:51.193Z,9.38
2023-03-04T03:44:18.297Z,9.85
2023-03-04T03:46:46.914Z,16.42
2023-03-04T03:49:14.482Z,13.48
2023-03-04T03:51:41.883Z,13.10
2023-03-04T03:54:09.706Z,9.80
2023-03-04T03:56:36.679Z,7.88
2023-03-04T03:59:03.761Z,11.85
2023-03-04T04:01:30.877Z,12.57
2023-03-04T04:03:58.463Z,10.40
2023-03-04T04:06:25.939Z,10.20
2023-03-04T04:08:53.310Z,17.45
2023-03-04T04:11:20.976Z,15.32
2023-03-04T04:13:48.468Z,19.65
2023-03-04T04:16:15.980Z,14.95
2023-03-04T04:18:44.132Z,18.63
2023-03-04T04:21:11.176Z,15.35
2023-03-04T04:23:38.673Z,17.65
2023-03-04T04:26:05.884Z,12.40
2023-03-04T04:28:33.629Z,11.20
2023-03-04T04:31:00.728Z,18.98
2023-03-04T04:33:28.348Z,20.58
2023-03-04T04:35:56.127Z,19.58
2023-03-04T04:38:24.729Z,11.05
2023-03-04T04:40:57.969Z,13.63
2023-03-04T04:43:25.756Z,10.73
2023-03-04T04:45:53.575Z,12.65
2023-03-04T04:48:23.403Z,11.52
2023-03-04T04:50:55.362Z,16.98
2023-03-04T04:53:22.702Z,26.08
2023-03-04T04:55:50.175Z,7.38
2023-03-04T04:58:17.593Z,16.73
2023-03-04T05:00:45.013Z,15.70
2023-03-04T05:03:13.249Z,17.65
2023-03-04T05:05:40.717Z,17.48
2023-03-04T05:08:08.324Z,12.38
2023-03-04T05:10:36.391Z,15.30
2023-03-04T05:13:04.247Z,12.77
2023-03-04T05:15:31.836Z,12.45
2023-03-04T05:17:59.463Z,23.73
2023-03-04T05:20:27.370Z,10.02
2023-03-04T05:22:54.458Z,15.43
2023-03-04T05:25:21.643Z,16.92
2023-03-04T05:27:49.098Z,10.85
2023-03-04T05:30:16.725Z,14.35
2023-03-04T05:32:43.833Z,17.88
2023-03-04T05:35:10.954Z,9.90
2023-03-04T05:37:38.379Z,10.95
2023-03-04T05:40:06.161Z,15.50
2023-03-04T05:42:33.294Z,11.02
2023-03-04T05:45:00.744Z,15.15
2023-03-04T05:47:27.800Z,11.68
2023-03-04T05:49:55.484Z,11.95
2023-03-04T05:52:23.011Z,5.38
2023-03-04T05:54:50.038Z,7.15
2023-03-04T05:57:17.749Z,14.85
2023-03-04T05:59:45.108Z,8.55
2023-03-04T06:02:12.635Z,14.40
2023-03-04T06:04:39.628Z,15.38
2023-03-04T06:07:08.617Z,10.93
2023-03-04T06:09:37.848Z,10.68
2023-03-04T06:12:05.061Z,10.80
2023-03-04T06:14:32.536Z,12.60
2023-03-04T06:16:59.996Z,10.32
2023-03-04T06:19:27.696Z,12.35
2023-03-04T06:21:55.053Z,8.38
2023-03-04T06:24:22.150Z,10.93
2023-03-04T06:26:49.676Z,16.80
2023-03-04T06:29:17.052Z,12.75
2023-03-04T06:31:44.249Z,14.70
2023-03-04T06:34:11.655Z,9.60
2023-03-04T06:36:39.253Z,9.38
2023-03-04T06:39:07.243Z,11.63
2023-03-04T06:41:38.286Z,12.57
2023-03-04T06:44:06.259Z,13.32
2023-03-04T06:46:34.757Z,14.55
2023-03-04T06:49:02.007Z,15.48
2023-03-04T06:51:29.314Z,15.57
2023-03-04T06:53:56.620Z,12.65
2023-03-04T06:56:23.594Z,10.43
2023-03-04T06:58:51.731Z,12.55
2023-03-04T07:01:24.364Z,16.52
2023-03-04T07:03:52.201Z,25.02
2023-03-04T07:06:24.675Z,12.45
2023-03-04T07:08:52.904Z,19.67
2023-03-04T07:11:22.167Z,18.88
2023-03-04T07:13:50.635Z,15.00
2023-03-04T07:16:20.951Z,10.73
2023-03-04T07:18:48.738Z,13.02
2023-03-04T07:21:17.513Z,13.65
2023-03-04T07:23:45.454Z,13.75
2023-03-04T07:26:13.088Z,14.85
2023-03-04T07:28:42.754Z,12.32
2023-03-04T07:31:28.309Z,15.07
2023-03-04T07:34:04.478Z,14.05
2023-03-04T07:36:32.380Z,13.45
2023-03-04T07:38:59.490Z,13.07
2023-03-04T07:41:31.287Z,15.60
2023-03-04T07:43:59.315Z,12.43
2023-03-04T07:46:26.932Z,13.73
2023-03-04T07:48:56.318Z,13.32
2023-03-04T07:51:25.672Z,12.30
2023-03-04T07:53:56.049Z,9.85
2023-03-04T07:58:53.716Z,9.45
2023-03-04T08:01:25.032Z,16.92
2023-03-04T08:03:53.082Z,13.88
2023-03-04T08:06:21.640Z,16.20
2023-03-04T08:08:49.623Z,17.40
2023-03-04T08:11:20.006Z,21.45
2023-03-04T08:13:50.512Z,13.25
2023-03-04T08:16:20.472Z,23.23
2023-03-04T08:18:50.395Z,11.60
2023-03-04T08:21:19.474Z,11.82
2023-03-04T08:23:47.525Z,17.52
2023-03-04T08:26:21.348Z,16.35
2023-03-04T08:28:49.212Z,19.08
2023-03-04T08:31:18.320Z,14.13
2023-03-04T08:33:46.405Z,14.40
2023-03-04T08:36:14.648Z,13.80
2023-03-04T08:38:42.394Z,23.40
2023-03-04T08:41:10.136Z,13.35
2023-03-04T08:43:37.285Z,15.60
2023-03-04T08:46:05.392Z,19.65
2023-03-04T08:48:33.314Z,15.30
2023-03-04T08:51:00.604Z,12.02
2023-03-04T08:53:27.844Z,12.25
2023-03-04T08:55:54.880Z,10.63
2023-03-04T08:58:22.459Z,13.80
2023-03-04T09:00:51.671Z,9.98
2023-03-04T09:03:20.455Z,13.57
2023-03-04T09:05:49.559Z,13.50
2023-03-04T09:08:18.297Z,13.70
2023-03-04T09:10:52.500Z,14.23
2023-03-04T09:13:20.515Z,11.93
2023-03-04T09:15:50.165Z,16.88
2023-03-04T09:18:19.563Z,13.88
2023-03-04T09:20:47.731Z,19.00
2023-03-04T09:23:15.238Z,17.70
2023-03-04T09:25:43.154Z,10.00
2023-03-04T09:28:11.314Z,15.68
2023-03-04T09:30:38.345Z,11.30
2023-03-04T09:33:05.320Z,15.02
2023-03-04T09:35:32.946Z,15.40
2023-03-04T09:38:00.424Z,14.00
2023-03-04T09:40:37.904Z,11.52
2023-03-04T09:43:07.922Z,11.82
2023-03-04T09:45:41.068Z,10.38
2023-03-04T09:48:11.263Z,15.50
2023-03-04T09:53:25.449Z,17.23
2023-03-04T09:55:53.461Z,11.85
2023-03-04T09:58:38.743Z,12.88
2023-03-04T10:01:22.947Z,12.18
2023-03-04T10:04:02.794Z,15.82
2023-03-04T10:06:32.064Z,15.13
2023-03-04T10:09:06.256Z,7.32
2023-03-04T10:11:43.462Z,9.15
2023-03-04T10:14:35.315Z,16.10
2023-03-04T10:17:18.748Z,14.50
2023-03-04T10:20:12.142Z,13.10
2023-03-04T10:22:45.715Z,11.93
2023-03-04T10:25:29.862Z,11.07
2023-03-04T10:28:07.421Z,10.77
2023-03-04T10:30:56.915Z,12.82
2023-03-04T10:33:32.686Z,8.73
2023-03-04T10:36:14.399Z,11.27
2023-03-04T10:38:43.217Z,13.45
2023-03-04T10:41:21.226Z,11.45
2023-03-04T10:44:02.536Z,9.98
2023-03-04T10:46:31.438Z,10.25
2023-03-04T10:49:05.540Z,12.65
2023-03-04T10:51:46.514Z,7.63
2023-03-04T10:54:27.798Z,7.38
2023-03-04T10:56:57.052Z,11.43
2023-03-04T10:59:51.601Z,9.18
2023-03-04T11:02:34.535Z,10.27
2023-03-04T11:05:23.012Z,12.02
2023-03-04T11:07:56.672Z,10.10
2023-03-04T11:10:36.699Z,15.95
2023-03-04T11:13:22.545Z,12.65
2023-03-04T11:15:58.431Z,17.27
2023-03-04T11:18:43.654Z,7.30
2023-03-04T11:21:42.197Z,16.13
2023-03-04T11:24:28.064Z,9.30
2023-03-04T11:27:01.164Z,14.00
2023-03-04T11:29:34.625Z,12.88
2023-03-04T11:32:21.845Z,18.98
2023-03-04T11:35:13.038Z,12.30
2023-03-04T11:38:01.786Z,16.35
2023-03-04T11:43:28.011Z,15.38
2023-03-04T11:46:19.525Z,12.32
2023-03-04T11:49:01.948Z,12.20
2023-03-04T11:51:52.445Z,10.13
2023-03-04T11:55:00.755Z,11.05
2023-03-04T11:57:35.463Z,8.07
2023-03-04T12:00:12.496Z,9.57
2023-03-04T12:03:18.489Z,8.15
2023-03-04T12:06:06.946Z,10.45
2023-03-04T12:08:40.136Z,9.90
2023-03-04T12:11:29.607Z,11.93
2023-03-04T12:14:32.664Z,9.95
2023-03-04T12:17:00.123Z,8.32
2023-03-04T12:19:50.411Z,8.32
2023-03-04T12:23:07.834Z,7.97
2023-03-04T12:25:34.866Z,10.00
2023-03-04T12:28:47.868Z,4.45
2023-03-04T12:31:33.306Z,9.18
2023-03-04T12:34:24.626Z,8.18
2023-03-04T12:37:23.381Z,10.35
2023-03-04T12:40:08.704Z,9.88
2023-03-04T12:42:54.512Z,12.02
2023-03-04T12:45:33.160Z,11.55
2023-03-04T12:48:21.485Z,8.32
2023-03-04T12:51:00.983Z,11.68
2023-03-04T12:53:39.244Z,5.70
2023-03-04T12:56:09.897Z,10.05
2023-03-04T12:58:37.725Z,6.63
2023-03-04T13:01:23.314Z,11.68
2023-03-04T13:03:56.331Z,9.45
2023-03-04T13:06:23.956Z,7.97
2023-03-04T13:08:59.705Z,10.23
2023-03-04T13:11:28.987Z,6.55
2023-03-04T13:14:25.572Z,8.52
2023-03-04T13:16:57.065Z,8.60
2023-03-04T13:19:47.832Z,7.07
2023-03-04T13:22:38.585Z,7.40
2023-03-04T13:25:30.172Z,4.90
2023-03-04T13:28:11.319Z,7.75
2023-03-04T13:30:38.562Z,5.40
2023-03-04T13:33:11.876Z,9.85
2023-03-04T13:35:49.379Z,8.38
2023-03-04T13:38:31.601Z,9.30
2023-03-04T13:41:22.972Z,6.25
2023-03-04T13:43:52.148Z,7.00
2023-03-04T13:46:19.664Z,7.82
2023-03-04T13:48:50.044Z,5.22
2023-03-04T13:51:31.212Z,4.55
2023-03-04T13:54:02.927Z,5.43
2023-03-04T13:56:47.550Z,9.45
2023-03-04T13:59:42.389Z,6.13
2023-03-04T14:02:20.063Z,4.30
2023-03-04T14:04:54.192Z,7.18
2023-03-04T14:07:27.422Z,5.60
2023-03-04T14:12:58.007Z,7.85
2023-03-04T14:15:31.622Z,6.57
2023-03-04T14:18:01.179Z,5.60
2023-03-04T14:20:41.597Z,5.15
2023-03-04T14:23:30.811Z,6.78
2023-03-04T14:26:18.417Z,5.82
2023-03-04T14:28:52.211Z,7.32
2023-03-04T14:31:22.961Z,7.50
2023-03-04T14:33:54.092Z,4.55
2023-03-04T14:36:23.936Z,7.90
2023-03-04T14:38:59.690Z,5.07
2023-03-04T14:41:34.298Z,6.25
2023-03-04T14:44:08.747Z,3.35
2023-03-04T14:46:56.823Z,5.70
2023-03-04T14:49:35.293Z,9.07
2023-03-04T14:52:02.808Z,1.95
2023-03-04T14:54:41.155Z,2.90
2023-03-04T14:57:25.909Z,3.13
2023-03-04T14:59:56.138Z,2.75
2023-03-04T15:02:31.198Z,3.08
2023-03-04T15:05:16.474Z,2.90
2023-03-04T15:08:19.722Z,2.42
2023-03-04T15:10:56.865Z,3.25
2023-03-04T15:13:50.331Z,2.90
2023-03-04T15:16:23.547Z,2.78
2023-03-04T15:19:06.353Z,0.25
2023-03-04T15:24:10.267Z,0.35
2023-03-04T15:26:42.709Z,2.20
2023-03-04T15:29:14.766Z,3.85
2023-03-04T15:31:43.871Z,2.15
2023-03-04T15:34:16.332Z,3.28
2023-03-04T15:36:46.756Z,1.33
2023-03-04T15:39:15.865Z,4.93
2023-03-04T15:41:50.636Z,1.15
2023-03-04T15:44:18.244Z,1.80
2023-03-04T15:46:45.781Z,3.55
2023-03-04T15:49:13.245Z,1.40
2023-03-04T15:51:40.943Z,0.98
2023-03-04T15:54:13.805Z,1.83
2023-03-04T15:56:41.509Z,4.55
2023-03-04T15:59:14.624Z,1.52
2023-03-04T16:01:42.284Z,2.40
2023-03-04T16:04:19.208Z,3.10
2023-03-04T16:06:48.600Z,3.60
2023-03-04T16:09:19.782Z,2.03
2023-03-04T16:11:50.234Z,2.38
2023-03-04T16:14:18.336Z,2.40
2023-03-04T16:16:47.002Z,5.18
2023-03-04T16:19:15.190Z,2.85
2023-03-04T16:21:42.808Z,1.95
2023-03-04T16:24:17.797Z,2.67
2023-03-04T16:26:45.320Z,4.07
2023-03-04T16:29:13.720Z,1.65
2023-03-04T16:31:44.082Z,1.73
2023-03-04T16:34:11.531Z,0.32
2023-03-04T16:36:39.050Z,3.10
2023-03-04T16:39:12.969Z,2.65
2023-03-04T16:41:40.127Z,3.10
2023-03-04T16:44:09.334Z,5.68
2023-03-04T16:46:39.792Z,4.20
2023-03-04T16:49:07.424Z,5.50
2023-03-04T16:51:46.632Z,3.08
2023-03-04T16:54:22.692Z,2.35
2023-03-04T16:56:50.448Z,3.03
2023-03-04T16:59:18.034Z,1.13
2023-03-04T17:01:49.690Z,1.20
2023-03-04T17:04:17.342Z,3.78
2023-03-04T17:06:44.964Z,5.85
2023-03-04T17:09:12.957Z,1.00
2023-03-04T17:11:48.295Z,1.00
2023-03-04T17:14:16.212Z,5.00
2023-03-04T17:16:44.117Z,3.15
2023-03-04T17:19:12.332Z,2.47
2023-03-04T17:21:39.977Z,4.63
2023-03-04T17:24:11.187Z,3.05
2023-03-04T17:26:39.857Z,3.33
2023-03-04T17:29:06.944Z,2.13
2023-03-04T17:31:35.644Z,23.15
2023-03-04T17:34:03.389Z,18.70
2023-03-04T17:36:30.456Z,14.50
2023-03-04T17:38:58.323Z,15.52
2023-03-04T17:41:26.807Z,10.70
2023-03-04T17:43:54.655Z,50.65
2023-03-04T17:46:24.514Z,14.55
2023-03-04T17:48:57.474Z,31.50
2023-03-04T17:51:34.496Z,30.27
2023-03-04T17:54:02.321Z,20.05
2023-03-04T17:56:32.634Z,21.13
2023-03-04T17:59:01.201Z,44.15
2023-03-04T18:01:28.795Z,15.90
2023-03-04T18:03:57.596Z,20.75
2023-03-04T18:06:25.326Z,35.92
2023-03-04T18:08:53.585Z,35.45
2023-03-04T18:11:22.642Z,61.35
2023-03-04T18:13:49.836Z,252.40
2023-03-04T18:16:23.462Z,151.88
2023-03-04T18:18:51.513Z,19.90
2023-03-04T18:21:19.687Z,16.83
2023-03-04T18:23:47.163Z,16.55
2023-03-04T18:26:14.178Z,6.20
2023-03-04T18:28:41.442Z,7.32
2023-03-04T18:31:10.440Z,5.85
2023-03-04T18:33:39.830Z,6.18
2023-03-04T18:36:09.515Z,5.40
2023-03-04T18:38:37.124Z,7.63
2023-03-04T18:41:09.947Z,7.15
2023-03-04T18:43:37.541Z,10.02
2023-03-04T18:46:08.317Z,7.13
2023-03-04T18:48:42.010Z,11.10
2023-03-04T18:51:12.925Z,6.53
2023-03-04T18:53:40.427Z,6.55
2023-03-04T18:56:13.500Z,3.60
2023-03-04T18:58:43.694Z,7.95
2023-03-04T19:01:11.824Z,4.22
2023-03-04T19:03:39.468Z,5.82
2023-03-04T19:06:10.371Z,12.23
2023-03-04T19:08:38.036Z,8.15
2023-03-04T19:11:12.124Z,5.03
2023-03-04T19:13:39.687Z,6.75
2023-03-04T19:16:11.947Z,6.53
2023-03-04T19:18:39.859Z,6.68
2023-03-04T19:21:07.854Z,11.05
2023-03-04T19:23:35.458Z,5.47
2023-03-04T19:26:05.069Z,6.18
2023-03-04T19:28:32.117Z,5.20
2023-03-04T19:31:02.818Z,4.05
2023-03-04T19:33:36.576Z,13.10
2023-03-04T19:36:07.103Z,7.32
2023-03-04T19:38:34.970Z,4.75
2023-03-04T19:41:16.441Z,5.60
2023-03-04T19:43:44.019Z,5.07
2023-03-04T19:46:11.803Z,6.55
2023-03-04T19:48:39.970Z,5.78
2023-03-04T19:51:16.105Z,5.47
2023-03-04T19:53:43.673Z,3.58
2023-03-04T19:56:15.317Z,8.23
2023-03-04T19:58:43.093Z,5.57
2023-03-04T20:01:28.386Z,9.48
2023-03-04T20:04:01.078Z,7.35
2023-03-04T20:06:29.137Z,7.72
2023-03-04T20:08:59.480Z,10.95
2023-03-04T20:11:27.912Z,6.93
2023-03-04T20:13:58.340Z,9.18
2023-03-04T20:16:28.419Z,8.38
2023-03-04T20:18:58.028Z,13.90
2023-03-04T20:21:26.746Z,5.65
2023-03-04T20:23:54.282Z,6.15
2023-03-04T20:26:21.973Z,5.43
2023-03-04T20:28:50.725Z,7.32
2023-03-04T20:31:27.436Z,13.10
2023-03-04T20:33:55.825Z,26.63
2023-03-04T20:36:27.661Z,12.95
2023-03-04T20:39:02.045Z,7.25
2023-03-04T20:41:31.260Z,7.38
2023-03-04T20:43:58.783Z,6.50
2023-03-04T20:46:33.398Z,7.53
2023-03-04T20:49:03.992Z,7.88
2023-03-04T20:51:32.367Z,5.13
2023-03-04T20:54:00.136Z,4.53
2023-03-04T20:56:28.192Z,5.03
2023-03-04T20:59:00.204Z,4.22
2023-03-04T21:01:28.068Z,8.75
2023-03-04T21:03:55.503Z,6.30
2023-03-04T21:06:25.007Z,8.77
2023-03-04T21:08:52.718Z,6.05
2023-03-04T21:11:20.942Z,4.15
2023-03-04T21:13:54.193Z,3.50
2023-03-04T21:16:21.792Z,2.50
2023-03-04T21:18:49.434Z,6.50
2023-03-04T21:21:22.353Z,5.18
2023-03-04T21:23:51.458Z,8.05
2023-03-04T21:26:21.863Z,5.75
2023-03-04T21:28:49.574Z,7.13
2023-03-04T21:31:25.786Z,7.57
2023-03-04T21:33:54.875Z,8.40
2023-03-04T21:36:23.093Z,7.22
2023-03-04T21:38:54.006Z,9.00
2023-03-04T21:41:23.477Z,7.35
2023-03-04T21:43:51.752Z,3.05
2023-03-04T21:46:19.492Z,15.82
2023-03-04T21:48:48.319Z,10.30
2023-03-04T21:51:17.108Z,13.23
2023-03-04T21:53:44.665Z,12.15
2023-03-04T21:56:15.756Z,3.17
2023-03-04T21:58:46.134Z,9.23
2023-03-04T22:01:16.239Z,5.15
2023-03-04T22:03:43.707Z,8.10
2023-03-04T22:06:15.297Z,5.80
2023-03-04T22:08:46.194Z,5.25
2023-03-04T22:11:13.715Z,3.30
2023-03-04T22:13:41.590Z,4.05
2023-03-04T22:16:09.718Z,4.63
2023-03-04T22:18:40.981Z,8.50
2023-03-04T22:21:11.787Z,3.58
2023-03-04T22:23:39.956Z,5.25
2023-03-04T22:26:17.023Z,3.85
2023-03-04T22:28:44.705Z,8.48
2023-03-04T22:31:30.364Z,5.40
2023-03-04T22:34:02.344Z,3.40
2023-03-04T22:36:32.301Z,3.63
2023-03-04T22:39:00.852Z,3.20
2023-03-04T22:41:28.088Z,5.10
2023-03-04T22:43:56.889Z,7.28
2023-03-04T22:46:26.707Z,3.33
2023-03-04T22:48:56.710Z,2.30
2023-03-04T22:51:24.490Z,6.80
2023-03-04T22:53:52.224Z,5.40
2023-03-04T22:56:20.442Z,5.88
2023-03-04T22:58:48.070Z,4.72
2023-03-04T23:01:17.543Z,4.18
2023-03-04T23:03:47.488Z,7.25
2023-03-04T23:06:25.323Z,3.40
2023-03-04T23:08:53.286Z,3.35
2023-03-04T23:11:26.687Z,6.97
2023-03-04T23:13:55.064Z,4.97
2023-03-04T23:16:29.956Z,7.15
2023-03-04T23:18:59.398Z,6.07
2023-03-04T23:21:35.400Z,5.30
2023-03-04T23:24:04.112Z,6.85
2023-03-04T23:26:35.150Z,7.47
2023-03-04T23:29:09.875Z,7.72
2023-03-04T23:31:37.670Z,5.68
2023-03-04T23:34:13.125Z,3.92
2023-03-04T23:36:42.222Z,7.30
2023-03-04T23:39:12.614Z,7.90
2023-03-04T23:41:40.232Z,4.70
2023-03-04T23:44:08.402Z,27.33
2023-03-04T23:46:39.311Z,39.70
2023-03-04T23:49:07.557Z,42.25
2023-03-04T23:51:35.014Z,23.70
2023-03-04T23:54:02.488Z,9.20
2023-03-04T23:56:33.701Z,7.60
2023-03-04T23:59:01.453Z,10.77
